createdAt,value
2022-11-20T00:00:39.040Z,42.35
2022-11-20T00:03:27.337Z,41.08
2022-11-20T00:06:15.826Z,35.28
2022-11-20T00:09:02.516Z,35.38
2022-11-20T00:11:48.549Z,34.30
2022-11-20T00:14:34.374Z,35.78
2022-11-20T00:17:19.861Z,33.35
2022-11-20T00:20:08.086Z,35.75
2022-11-20T00:22:54.014Z,39.65
2022-11-20T00:25:40.061Z,37.40
2022-11-20T00:28:25.922Z,36.25
2022-11-20T00:31:15.322Z,30.77
2022-11-20T00:34:01.088Z,33.83
2022-11-20T00:36:48.034Z,36.50
2022-11-20T00:39:33.569Z,30.27
2022-11-20T00:42:19.649Z,40.28
2022-11-20T00:45:06.247Z,33.08
2022-11-20T00:47:52.048Z,34.40
2022-11-20T00:50:37.671Z,34.53
2022-11-20T00:53:25.041Z,32.00
2022-11-20T00:56:13.088Z,30.60
2022-11-20T00:59:01.852Z,28.33
2022-11-20T01:01:47.966Z,31.23
2022-11-20T01:04:33.740Z,34.22
2022-11-20T01:07:19.408Z,32.60
2022-11-20T01:10:07.566Z,31.20
2022-11-20T01:13:12.955Z,25.95
2022-11-20T01:16:03.980Z,32.95
2022-11-20T01:18:51.288Z,36.30
2022-11-20T01:21:38.944Z,31.63
2022-11-20T01:24:24.759Z,34.83
2022-11-20T01:27:11.680Z,34.80
2022-11-20T01:30:01.124Z,38.58
2022-11-20T01:32:47.251Z,32.25
2022-11-20T01:35:32.697Z,27.45
2022-11-20T01:38:19.148Z,27.45
2022-11-20T01:41:05.171Z,25.55
2022-11-20T01:43:52.299Z,24.73
2022-11-20T01:46:39.207Z,23.45
2022-11-20T01:49:27.914Z,19.60
2022-11-20T01:52:17.014Z,21.13
2022-11-20T01:55:07.380Z,20.13
2022-11-20T01:57:53.029Z,22.73
2022-11-20T02:00:41.767Z,21.23
2022-11-20T02:03:28.553Z,20.58
2022-11-20T02:06:20.455Z,30.17
2022-11-20T02:09:06.256Z,31.60
2022-11-20T02:11:52.287Z,34.00
2022-11-20T02:14:38.043Z,27.77
2022-11-20T02:17:25.569Z,29.67
2022-11-20T02:20:12.568Z,26.05
2022-11-20T02:23:03.535Z,28.77
2022-11-20T02:25:51.661Z,27.50
2022-11-20T02:28:37.551Z,28.83
2022-11-20T02:31:23.675Z,23.60
2022-11-20T02:34:09.945Z,27.15
2022-11-20T02:36:57.828Z,23.13
2022-11-20T02:39:44.982Z,25.60
2022-11-20T02:42:32.186Z,25.70
2022-11-20T02:45:18.037Z,31.67
2022-11-20T02:48:04.167Z,28.48
2022-11-20T02:50:49.756Z,26.23
2022-11-20T02:53:35.395Z,30.58
2022-11-20T02:56:21.360Z,27.52
2022-11-20T02:59:08.598Z,27.20
2022-11-20T03:01:54.377Z,24.88
2022-11-20T03:04:40.043Z,24.80
2022-11-20T03:07:26.602Z,21.52
2022-11-20T03:10:12.578Z,25.75
2022-11-20T03:12:58.181Z,25.80
2022-11-20T03:15:45.186Z,23.80
2022-11-20T03:18:30.839Z,24.70
2022-11-20T03:21:17.385Z,26.48
2022-11-20T03:24:04.156Z,25.70
2022-11-20T03:26:49.525Z,28.90
2022-11-20T03:29:36.445Z,24.15
2022-11-20T03:32:23.146Z,22.35
2022-11-20T03:35:10.133Z,26.40
2022-11-20T03:37:55.947Z,24.42
2022-11-20T03:40:41.513Z,21.80
2022-11-20T03:43:27.944Z,23.65
2022-11-20T03:46:13.408Z,24.90
2022-11-20T03:49:00.892Z,23.15
2022-11-20T03:51:46.641Z,24.98
2022-11-20T03:54:32.261Z,21.67
2022-11-20T03:57:17.813Z,21.25
2022-11-20T04:00:04.708Z,23.02
2022-11-20T04:02:50.729Z,22.88
2022-11-20T04:05:37.798Z,21.67
2022-11-20T04:08:23.310Z,21.45
2022-11-20T04:11:13.252Z,23.55
2022-11-20T04:14:00.186Z,21.55
2022-11-20T04:16:46.092Z,24.67
2022-11-20T04:19:31.632Z,23.08
2022-11-20T04:22:18.701Z,22.00
2022-11-20T04:25:04.885Z,21.40
2022-11-20T04:27:50.676Z,21.48
2022-11-20T04:30:36.400Z,22.13
2022-11-20T04:33:22.041Z,24.75
2022-11-20T04:36:11.235Z,23.85
2022-11-20T04:38:59.608Z,20.90
2022-11-20T04:41:45.268Z,25.55
2022-11-20T04:44:30.577Z,24.48
2022-11-20T04:47:16.317Z,20.60
2022-11-20T04:50:02.195Z,23.23
2022-11-20T04:52:47.709Z,23.23
2022-11-20T04:55:34.396Z,25.90
2022-11-20T04:58:19.936Z,22.17
2022-11-20T05:01:07.167Z,19.80
2022-11-20T05:03:53.215Z,21.13
2022-11-20T05:06:38.716Z,23.98
2022-11-20T05:09:24.352Z,19.80
2022-11-20T05:12:11.451Z,23.25
2022-11-20T05:14:57.207Z,24.88
2022-11-20T05:17:48.443Z,23.27
2022-11-20T05:23:19.386Z,22.83
2022-11-20T05:26:06.179Z,23.35
2022-11-20T05:43:09.078Z,30.10
2022-11-20T06:02:35.502Z,30.92
2022-11-20T06:05:21.604Z,27.00
2022-11-20T06:08:08.373Z,26.70
2022-11-20T06:10:54.102Z,30.10
2022-11-20T06:13:42.347Z,33.35
2022-11-20T06:16:28.371Z,32.85
2022-11-20T06:21:59.898Z,37.70
2022-11-20T06:24:46.987Z,29.70
2022-11-20T06:33:04.452Z,22.90
2022-11-20T06:35:51.639Z,23.75
2022-11-20T06:41:27.052Z,29.00
2022-11-20T06:46:59.264Z,23.10
2022-11-20T06:52:30.583Z,23.75
2022-11-20T06:58:04.724Z,21.90
2022-11-20T07:00:50.764Z,20.83
2022-11-20T07:03:36.749Z,25.95
2022-11-20T07:06:22.463Z,25.15
2022-11-20T07:14:48.567Z,36.83
2022-11-20T07:25:52.486Z,33.65
2022-11-20T07:28:38.908Z,29.00
2022-11-20T07:31:25.822Z,27.63
2022-11-20T07:34:12.729Z,31.50
2022-11-20T07:42:32.575Z,29.50
2022-11-20T07:45:18.173Z,30.85
2022-11-20T07:48:05.964Z,43.35
2022-11-20T08:18:43.917Z,21.90
2022-11-20T08:21:36.702Z,25.40
2022-11-20T08:24:24.160Z,20.52
2022-11-20T08:32:42.810Z,23.77
2022-11-20T09:09:06.880Z,23.08
2022-11-20T09:11:54.885Z,29.80
2022-11-20T09:14:41.155Z,27.27
2022-11-20T09:17:26.823Z,25.58
2022-11-20T09:31:47.808Z,24.07
2022-11-20T09:34:33.423Z,25.95
2022-11-20T09:37:20.770Z,27.42
2022-11-20T09:40:17.479Z,27.50
2022-11-20T09:43:11.175Z,24.33
2022-11-20T09:46:07.220Z,25.17
2022-11-20T09:49:04.749Z,27.73
2022-11-20T09:51:57.935Z,35.38
2022-11-20T09:54:44.915Z,27.23
2022-11-20T09:57:36.613Z,28.95
2022-11-20T10:00:24.476Z,26.40
2022-11-20T10:03:17.856Z,35.53
2022-11-20T10:06:06.228Z,25.17
2022-11-20T10:09:02.589Z,31.38
2022-11-20T10:11:57.683Z,26.77
2022-11-20T10:14:54.990Z,30.20
2022-11-20T10:18:16.496Z,29.05
2022-11-20T10:21:11.789Z,27.45
2022-11-20T10:24:25.003Z,26.58
2022-11-20T10:27:28.573Z,30.63
2022-11-20T10:30:16.844Z,27.38
2022-11-20T10:33:17.091Z,27.70
2022-11-20T10:36:10.463Z,27.83
2022-11-20T10:39:00.258Z,33.30
2022-11-20T10:41:49.381Z,29.50
2022-11-20T10:44:56.808Z,31.77
2022-11-20T10:47:42.744Z,32.63
2022-11-20T10:50:31.933Z,28.73
2022-11-20T10:53:29.565Z,30.27
2022-11-20T10:56:21.172Z,46.67
2022-11-20T10:59:32.247Z,34.90
2022-11-20T11:02:20.167Z,31.08
2022-11-20T11:05:18.462Z,34.47
2022-11-20T11:08:05.731Z,30.08
2022-11-20T11:10:55.890Z,30.92
2022-11-20T11:13:41.574Z,31.77
2022-11-20T11:16:28.025Z,33.78
2022-11-20T11:19:14.989Z,41.40
2022-11-20T11:22:00.813Z,33.55
2022-11-20T11:24:54.718Z,35.13
2022-11-20T11:27:49.018Z,37.05
2022-11-20T11:30:43.848Z,32.83
2022-11-20T11:33:31.132Z,44.00
2022-11-20T11:36:21.061Z,38.35
2022-11-20T11:39:16.762Z,37.38
2022-11-20T11:42:03.170Z,34.97
2022-11-20T11:45:08.511Z,31.67
2022-11-20T11:47:56.870Z,35.53
2022-11-20T11:50:50.402Z,33.72
2022-11-20T11:53:42.527Z,35.17
2022-11-20T11:56:29.722Z,35.28
2022-11-20T11:59:27.545Z,46.83
2022-11-20T12:02:26.919Z,35.72
2022-11-20T12:05:20.939Z,34.63
2022-11-20T12:08:13.422Z,34.40
2022-11-20T12:11:05.886Z,38.60
2022-11-20T12:13:55.314Z,34.33
2022-11-20T12:16:41.176Z,34.17
2022-11-20T12:19:30.703Z,34.60
2022-11-20T12:22:30.480Z,36.90
2022-11-20T12:25:21.655Z,35.95
2022-11-20T12:28:29.472Z,38.55
2022-11-20T12:31:30.353Z,38.42
2022-11-20T12:34:45.843Z,41.22
2022-11-20T12:37:39.260Z,40.55
2022-11-20T12:40:34.314Z,38.95
2022-11-20T12:43:41.036Z,41.50
2022-11-20T12:46:37.589Z,39.55
2022-11-20T12:49:36.201Z,37.33
2022-11-20T12:52:44.738Z,38.22
2022-11-20T12:55:42.992Z,38.50
2022-11-20T12:58:40.002Z,36.67
2022-11-20T13:01:43.688Z,40.53
2022-11-20T13:04:45.320Z,38.05
2022-11-20T13:07:33.027Z,41.50
2022-11-20T13:10:27.497Z,42.45
2022-11-20T13:13:18.467Z,40.17
2022-11-20T13:16:12.422Z,39.42
2022-11-20T13:19:04.255Z,40.22
2022-11-20T13:21:51.490Z,41.25
2022-11-20T13:24:37.326Z,40.90
2022-11-20T13:27:25.304Z,44.33
2022-11-20T13:30:18.399Z,42.55
2022-11-20T13:33:08.876Z,40.97
2022-11-20T13:35:58.032Z,46.25
2022-11-20T13:38:47.560Z,41.65
2022-11-20T13:41:36.568Z,43.55
2022-11-20T13:44:27.774Z,42.88
2022-11-20T13:47:22.614Z,45.65
2022-11-20T13:50:10.502Z,53.08
2022-11-20T13:53:01.808Z,43.70
2022-11-20T13:55:54.940Z,40.67
2022-11-20T13:58:54.889Z,45.33
2022-11-20T14:01:45.259Z,42.60
2022-11-20T14:04:36.112Z,50.35
2022-11-20T14:07:26.507Z,46.78
2022-11-20T14:10:21.482Z,42.40
2022-11-20T14:13:18.685Z,45.95
2022-11-20T14:16:04.454Z,44.78
2022-11-20T14:18:51.743Z,51.53
2022-11-20T14:21:37.497Z,51.40
2022-11-20T14:24:25.031Z,44.00
2022-11-20T14:27:15.254Z,47.42
2022-11-20T14:30:02.706Z,43.70
2022-11-20T14:32:49.854Z,41.55
2022-11-20T14:35:46.770Z,44.30
2022-11-20T14:38:33.602Z,45.28
2022-11-20T14:41:20.911Z,43.75
2022-11-20T14:44:09.566Z,49.67
2022-11-20T14:46:56.794Z,45.83
2022-11-20T14:49:42.795Z,43.28
2022-11-20T14:52:31.977Z,47.55
2022-11-20T14:55:27.123Z,48.08
2022-11-20T14:58:23.468Z,49.90
2022-11-20T15:01:13.770Z,51.70
2022-11-20T15:04:06.571Z,51.23
2022-11-20T15:06:54.802Z,49.85
2022-11-20T15:09:41.884Z,57.70
2022-11-20T15:12:27.927Z,59.70
2022-11-20T15:15:17.920Z,52.13
2022-11-20T15:18:04.462Z,56.38
2022-11-20T15:20:51.042Z,55.42
2022-11-20T15:23:36.868Z,56.50
2022-11-20T15:26:27.441Z,61.20
2022-11-20T15:29:15.226Z,56.87
2022-11-20T15:32:01.316Z,61.03
2022-11-20T15:34:47.203Z,61.75
2022-11-20T15:37:32.851Z,56.83
2022-11-20T15:40:18.712Z,58.58
2022-11-20T15:43:12.632Z,64.43
2022-11-20T15:46:01.687Z,59.42
2022-11-20T15:48:51.237Z,61.60
2022-11-20T15:51:38.816Z,60.33
2022-11-20T15:54:24.862Z,66.95
2022-11-20T15:57:10.640Z,60.15
2022-11-20T15:59:58.302Z,61.20
2022-11-20T16:02:44.138Z,61.28
2022-11-20T16:05:30.142Z,59.20
2022-11-20T16:08:15.852Z,59.67
2022-11-20T16:11:02.121Z,67.57
2022-11-20T16:14:05.875Z,63.03
2022-11-20T16:16:53.144Z,55.45
2022-11-20T16:19:39.097Z,55.85
2022-11-20T16:22:24.510Z,65.45
2022-11-20T16:25:10.309Z,60.78
2022-11-20T16:27:56.217Z,62.55
2022-11-20T16:30:41.719Z,62.08
2022-11-20T16:33:29.032Z,65.75
2022-11-20T16:36:16.039Z,64.70
2022-11-20T16:39:03.358Z,63.60
2022-11-20T16:41:49.083Z,57.58
2022-11-20T16:44:35.519Z,59.28
2022-11-20T16:47:21.141Z,59.90
2022-11-20T16:50:09.252Z,58.40
2022-11-20T16:52:55.603Z,58.78
2022-11-20T16:55:41.354Z,50.90
2022-11-20T16:58:27.105Z,59.42
2022-11-20T17:01:15.237Z,59.42
2022-11-20T17:04:02.683Z,64.57
2022-11-20T17:06:49.977Z,53.30
2022-11-20T17:09:35.708Z,59.30
2022-11-20T17:12:21.553Z,56.17
2022-11-20T17:15:08.079Z,56.10
2022-11-20T17:17:54.148Z,61.97
2022-11-20T17:20:39.634Z,50.03
2022-11-20T17:23:28.000Z,55.85
2022-11-20T17:26:16.441Z,66.38
2022-11-20T17:29:04.752Z,59.38
2022-11-20T17:31:51.572Z,56.28
2022-11-20T17:34:37.296Z,56.35
2022-11-20T17:37:22.736Z,54.78
2022-11-20T17:40:10.536Z,59.55
2022-11-20T17:42:56.621Z,55.42
2022-11-20T17:45:44.029Z,55.33
2022-11-20T17:48:31.045Z,66.55
2022-11-20T17:51:18.885Z,55.05
2022-11-20T17:54:07.562Z,52.63
2022-11-20T17:57:13.528Z,49.25
2022-11-20T17:59:59.169Z,49.13
2022-11-20T18:02:44.511Z,52.92
2022-11-20T18:05:29.945Z,46.80
2022-11-20T18:08:15.811Z,46.33
2022-11-20T18:11:10.100Z,46.80
2022-11-20T18:14:17.558Z,44.92
2022-11-20T18:17:05.664Z,45.92
2022-11-20T18:20:14.301Z,44.53
2022-11-20T18:22:57.430Z,51.42
2022-11-20T18:25:44.505Z,41.75
2022-11-20T18:28:30.505Z,40.78
2022-11-20T18:31:17.658Z,44.20
2022-11-20T18:34:03.496Z,44.95
2022-11-20T18:36:49.350Z,44.08
2022-11-20T18:39:35.354Z,44.90
2022-11-20T18:42:39.622Z,40.65
2022-11-20T18:45:25.403Z,46.97
2022-11-20T18:48:12.210Z,62.30
2022-11-20T18:51:05.668Z,49.13
2022-11-20T18:53:51.087Z,42.55
2022-11-20T18:56:37.013Z,44.42
2022-11-20T18:59:22.648Z,49.03
2022-11-20T19:02:10.171Z,50.40
2022-11-20T19:04:57.526Z,55.33
2022-11-20T19:07:43.388Z,48.58
2022-11-20T19:10:29.297Z,47.25
2022-11-20T19:13:15.212Z,48.30
2022-11-20T19:16:02.921Z,48.97
2022-11-20T19:18:49.365Z,52.25
2022-11-20T19:21:36.991Z,50.13
2022-11-20T19:24:23.097Z,47.38
2022-11-20T19:27:09.050Z,54.90
2022-11-20T19:29:58.801Z,47.47
2022-11-20T19:32:44.388Z,43.78
2022-11-20T19:35:30.231Z,44.83
2022-11-20T19:38:17.727Z,46.50
2022-11-20T19:41:03.938Z,48.60
2022-11-20T19:43:49.973Z,38.97
2022-11-20T19:46:36.921Z,40.97
2022-11-20T19:49:22.815Z,46.65
2022-11-20T19:52:08.650Z,48.58
2022-11-20T19:54:55.746Z,49.78
2022-11-20T19:57:41.350Z,44.85
2022-11-20T20:00:32.330Z,46.55
2022-11-20T20:03:19.031Z,42.58
2022-11-20T20:06:06.406Z,44.88
2022-11-20T20:08:55.498Z,45.05
2022-11-20T20:11:45.718Z,45.17
2022-11-20T20:14:32.113Z,44.47
2022-11-20T20:17:17.916Z,50.50
2022-11-20T20:20:04.621Z,46.03
2022-11-20T20:22:50.745Z,44.83
2022-11-20T20:25:39.821Z,45.30
2022-11-20T20:28:27.564Z,50.50
2022-11-20T20:31:14.876Z,44.85
2022-11-20T20:34:01.600Z,48.15
2022-11-20T20:36:47.093Z,44.25
2022-11-20T20:39:32.845Z,43.90
2022-11-20T20:47:52.534Z,56.20
2022-11-20T23:18:00.479Z,50.28
2022-11-20T23:26:19.561Z,53.90
